sensor_id;sensor_type;location;lat;lon;timestamp;pressure;altitude;pressure_sealevel;temperature;humidity
79077;BME280;68477;42.698;23.342;2023-12-20T00:00:24;95789.41;;;-0.94;100.00
79077;BME280;68477;42.698;23.342;2023-12-20T00:02:50;95791.34;;;-1.58;100.00
79077;BME280;68477;42.698;23.342;2023-12-20T00:05:15;95785.63;;;-1.33;100.00
79077;BME280;68477;42.698;23.342;2023-12-20T00:07:41;95790.91;;;-1.20;100.00
79077;BME280;68477;42.698;23.342;2023-12-20T00:10:07;95781.50;;;-1.21;100.00
79077;BME280;68477;42.698;23.342;2023-12-20T00:12:33;95776.97;;;-1.32;100.00
79077;BME280;68477;42.698;23.342;2023-12-20T00:14:58;95772.22;;;-1.24;100.00
79077;BME280;68477;42.698;23.342;2023-12-20T00:17:24;95769.63;;;-1.24;100.00
79077;BME280;68477;42.698;23.342;2023-12-20T00:19:49;95771.31;;;-1.08;100.00
79077;BME280;68477;42.698;23.342;2023-12-20T00:22:14;95770.28;;;-1.06;100.00
79077;BME280;68477;42.698;23.342;2023-12-20T00:24:40;95772.03;;;-1.21;100.00
79077;BME280;68477;42.698;23.342;2023-12-20T00:27:05;95759.25;;;-1.08;100.00
79077;BME280;68477;42.698;23.342;2023-12-20T00:29:31;95754.31;;;-1.27;100.00
79077;BME280;68477;42.698;23.342;2023-12-20T00:31:56;95750.44;;;-1.80;100.00
79077;BME280;68477;42.698;23.342;2023-12-20T00:34:22;95751.81;;;-1.28;100.00
79077;BME280;68477;42.698;23.342;2023-12-20T00:36:47;95750.22;;;-1.61;100.00
79077;BME280;68477;42.698;23.342;2023-12-20T00:39:13;95744.88;;;-1.42;100.00
79077;BME280;68477;42.698;23.342;2023-12-20T00:41:40;95752.38;;;-1.53;100.00
79077;BME280;68477;42.698;23.342;2023-12-20T00:44:05;95745.56;;;-1.54;100.00
79077;BME280;68477;42.698;23.342;2023-12-20T00:46:31;95751.59;;;-1.39;100.00
79077;BME280;68477;42.698;23.342;2023-12-20T00:48:56;95738.50;;;-1.36;100.00
79077;BME280;68477;42.698;23.342;2023-12-20T00:51:22;95730.97;;;-1.25;100.00
79077;BME280;68477;42.698;23.342;2023-12-20T00:53:49;95729.06;;;-1.36;100.00
79077;BME280;68477;42.698;23.342;2023-12-20T00:56:15;95731.84;;;-1.55;100.00
79077;BME280;68477;42.698;23.342;2023-12-20T00:58:40;95733.56;;;-1.85;100.00
79077;BME280;68477;42.698;23.342;2023-12-20T01:01:06;95719.16;;;-1.73;100.00
79077;BME280;68477;42.698;23.342;2023-12-20T01:03:31;95727.16;;;-1.78;100.00
79077;BME280;68477;42.698;23.342;2023-12-20T01:05:57;95721.72;;;-1.73;100.00
79077;BME280;68477;42.698;23.342;2023-12-20T01:08:23;95719.16;;;-1.73;100.00
79077;BME280;68477;42.698;23.342;2023-12-20T01:10:48;95716.16;;;-1.82;100.00
79077;BME280;68477;42.698;23.342;2023-12-20T01:13:15;95712.13;;;-2.17;100.00
79077;BME280;68477;42.698;23.342;2023-12-20T01:15:40;95717.69;;;-1.78;100.00
79077;BME280;68477;42.698;23.342;2023-12-20T01:18:06;95714.94;;;-2.06;100.00
79077;BME280;68477;42.698;23.342;2023-12-20T01:20:32;95706.88;;;-1.84;100.00
79077;BME280;68477;42.698;23.342;2023-12-20T01:22:57;95710.53;;;-2.04;100.00
79077;BME280;68477;42.698;23.342;2023-12-20T01:25:23;95696.88;;;-2.36;100.00
79077;BME280;68477;42.698;23.342;2023-12-20T01:27:48;95690.78;;;-2.19;100.00
79077;BME280;68477;42.698;23.342;2023-12-20T01:30:14;95694.28;;;-1.74;100.00
79077;BME280;68477;42.698;23.342;2023-12-20T01:32:40;95686.28;;;-2.16;100.00
79077;BME280;68477;42.698;23.342;2023-12-20T01:35:06;95685.19;;;-1.96;100.00
79077;BME280;68477;42.698;23.342;2023-12-20T01:37:31;95679.06;;;-2.09;100.00
79077;BME280;68477;42.698;23.342;2023-12-20T01:39:57;95679.88;;;-2.09;100.00
79077;BME280;68477;42.698;23.342;2023-12-20T01:42:23;95681.06;;;-2.14;100.00
79077;BME280;68477;42.698;23.342;2023-12-20T01:44:49;95665.88;;;-2.35;100.00
79077;BME280;68477;42.698;23.342;2023-12-20T01:47:15;95662.47;;;-2.67;100.00
79077;BME280;68477;42.698;23.342;2023-12-20T01:49:40;95658.81;;;-2.63;100.00
79077;BME280;68477;42.698;23.342;2023-12-20T01:52:06;95658.94;;;-2.18;100.00
79077;BME280;68477;42.698;23.342;2023-12-20T01:54:34;95661.38;;;-2.31;100.00
79077;BME280;68477;42.698;23.342;2023-12-20T01:57:00;95664.31;;;-1.91;100.00
79077;BME280;68477;42.698;23.342;2023-12-20T01:59:26;95651.34;;;-2.67;100.00
79077;BME280;68477;42.698;23.342;2023-12-20T02:01:54;95651.09;;;-2.63;100.00
79077;BME280;68477;42.698;23.342;2023-12-20T02:04:19;95655.75;;;-2.38;100.00
79077;BME280;68477;42.698;23.342;2023-12-20T02:06:46;95653.91;;;-2.36;100.00
79077;BME280;68477;42.698;23.342;2023-12-20T02:09:12;95645.72;;;-2.58;100.00
79077;BME280;68477;42.698;23.342;2023-12-20T02:11:38;95641.56;;;-2.60;100.00
79077;BME280;68477;42.698;23.342;2023-12-20T02:14:04;95638.56;;;-2.37;100.00
79077;BME280;68477;42.698;23.342;2023-12-20T02:16:30;95638.03;;;-2.75;100.00
79077;BME280;68477;42.698;23.342;2023-12-20T02:18:55;95640.31;;;-2.38;100.00
79077;BME280;68477;42.698;23.342;2023-12-20T02:21:33;95632.56;;;-2.53;100.00
79077;BME280;68477;42.698;23.342;2023-12-20T02:24:02;95632.97;;;-2.92;100.00
79077;BME280;68477;42.698;23.342;2023-12-20T02:26:27;95627.44;;;-2.38;100.00
79077;BME280;68477;42.698;23.342;2023-12-20T02:28:54;95625.34;;;-2.78;100.00
79077;BME280;68477;42.698;23.342;2023-12-20T02:31:23;95632.66;;;-2.55;100.00
79077;BME280;68477;42.698;23.342;2023-12-20T02:33:49;95615.88;;;-2.62;100.00
79077;BME280;68477;42.698;23.342;2023-12-20T02:36:14;95615.63;;;-2.73;100.00
79077;BME280;68477;42.698;23.342;2023-12-20T02:38:40;95613.38;;;-2.64;100.00
79077;BME280;68477;42.698;23.342;2023-12-20T02:41:05;95621.34;;;-3.00;100.00
79077;BME280;68477;42.698;23.342;2023-12-20T02:43:31;95609.66;;;-2.89;100.00
79077;BME280;68477;42.698;23.342;2023-12-20T02:45:56;95602.00;;;-2.75;100.00
79077;BME280;68477;42.698;23.342;2023-12-20T02:48:22;95600.75;;;-3.00;100.00
79077;BME280;68477;42.698;23.342;2023-12-20T02:50:48;95603.94;;;-2.79;100.00
79077;BME280;68477;42.698;23.342;2023-12-20T02:53:14;95606.94;;;-3.35;100.00
79077;BME280;68477;42.698;23.342;2023-12-20T02:55:40;95606.72;;;-2.83;100.00
79077;BME280;68477;42.698;23.342;2023-12-20T02:58:05;95605.94;;;-3.33;100.00
79077;BME280;68477;42.698;23.342;2023-12-20T03:00:31;95611.06;;;-2.84;100.00
79077;BME280;68477;42.698;23.342;2023-12-20T03:02:56;95608.91;;;-2.91;100.00
79077;BME280;68477;42.698;23.342;2023-12-20T03:05:22;95598.63;;;-2.91;100.00
79077;BME280;68477;42.698;23.342;2023-12-20T03:07:47;95604.16;;;-2.52;100.00
79077;BME280;68477;42.698;23.342;2023-12-20T03:10:13;95605.50;;;-2.45;100.00
79077;BME280;68477;42.698;23.342;2023-12-20T03:12:38;95601.50;;;-2.50;100.00
79077;BME280;68477;42.698;23.342;2023-12-20T03:15:04;95602.59;;;-2.54;100.00
79077;BME280;68477;42.698;23.342;2023-12-20T03:17:30;95601.94;;;-2.89;100.00
79077;BME280;68477;42.698;23.342;2023-12-20T03:19:55;95596.94;;;-2.77;100.00
79077;BME280;68477;42.698;23.342;2023-12-20T03:22:21;95594.88;;;-2.86;100.00
79077;BME280;68477;42.698;23.342;2023-12-20T03:24:46;95590.72;;;-2.73;100.00
79077;BME280;68477;42.698;23.342;2023-12-20T03:27:12;95593.47;;;-2.91;100.00
79077;BME280;68477;42.698;23.342;2023-12-20T03:29:37;95591.66;;;-3.05;100.00
79077;BME280;68477;42.698;23.342;2023-12-20T03:32:03;95594.47;;;-2.94;100.00
79077;BME280;68477;42.698;23.342;2023-12-20T03:34:29;95590.00;;;-2.90;100.00
79077;BME280;68477;42.698;23.342;2023-12-20T03:36:54;95581.34;;;-2.89;100.00
79077;BME280;68477;42.698;23.342;2023-12-20T03:39:20;95588.47;;;-2.95;100.00
79077;BME280;68477;42.698;23.342;2023-12-20T03:41:45;95585.50;;;-2.71;100.00
79077;BME280;68477;42.698;23.342;2023-12-20T03:44:11;95579.94;;;-2.95;100.00
79077;BME280;68477;42.698;23.342;2023-12-20T03:46:36;95583.28;;;-2.93;100.00
79077;BME280;68477;42.698;23.342;2023-12-20T03:49:02;95575.59;;;-3.10;100.00
79077;BME280;68477;42.698;23.342;2023-12-20T03:51:27;95582.75;;;-2.84;100.00
79077;BME280;68477;42.698;23.342;2023-12-20T03:53:53;95579.78;;;-2.76;100.00
79077;BME280;68477;42.698;23.342;2023-12-20T03:56:18;95574.59;;;-3.08;100.00
79077;BME280;68477;42.698;23.342;2023-12-20T03:58:44;95575.03;;;-2.68;100.00
79077;BME280;68477;42.698;23.342;2023-12-20T04:01:10;95573.13;;;-2.96;100.00
79077;BME280;68477;42.698;23.342;2023-12-20T04:03:39;95575.03;;;-3.00;100.00
79077;BME280;68477;42.698;23.342;2023-12-20T04:06:05;95564.22;;;-3.06;100.00
79077;BME280;68477;42.698;23.342;2023-12-20T04:08:31;95562.59;;;-2.76;100.00
79077;BME280;68477;42.698;23.342;2023-12-20T04:10:57;95560.75;;;-2.58;100.00
79077;BME280;68477;42.698;23.342;2023-12-20T04:13:23;95564.09;;;-2.87;100.00
79077;BME280;68477;42.698;23.342;2023-12-20T04:15:48;95553.88;;;-2.89;100.00
79077;BME280;68477;42.698;23.342;2023-12-20T04:18:16;95555.00;;;-2.63;100.00
79077;BME280;68477;42.698;23.342;2023-12-20T04:20:41;95544.31;;;-2.71;100.00
79077;BME280;68477;42.698;23.342;2023-12-20T04:23:07;95548.72;;;-2.89;100.00
79077;BME280;68477;42.698;23.342;2023-12-20T04:25:32;95547.47;;;-2.98;100.00
79077;BME280;68477;42.698;23.342;2023-12-20T04:27:58;95539.19;;;-2.71;100.00
79077;BME280;68477;42.698;23.342;2023-12-20T04:30:23;95540.84;;;-3.02;100.00
79077;BME280;68477;42.698;23.342;2023-12-20T04:32:49;95538.75;;;-2.95;100.00
79077;BME280;68477;42.698;23.342;2023-12-20T04:35:15;95534.28;;;-2.91;100.00
79077;BME280;68477;42.698;23.342;2023-12-20T04:37:40;95535.19;;;-2.77;100.00
79077;BME280;68477;42.698;23.342;2023-12-20T04:40:06;95538.03;;;-3.13;100.00
79077;BME280;68477;42.698;23.342;2023-12-20T04:42:33;95538.66;;;-3.41;100.00
79077;BME280;68477;42.698;23.342;2023-12-20T04:44:58;95538.78;;;-3.11;100.00
79077;BME280;68477;42.698;23.342;2023-12-20T04:47:24;95532.47;;;-3.05;100.00
79077;BME280;68477;42.698;23.342;2023-12-20T04:49:50;95529.66;;;-3.16;100.00
79077;BME280;68477;42.698;23.342;2023-12-20T04:52:15;95533.63;;;-2.49;100.00
79077;BME280;68477;42.698;23.342;2023-12-20T04:54:41;95526.31;;;-2.87;100.00
79077;BME280;68477;42.698;23.342;2023-12-20T04:57:06;95530.47;;;-3.47;100.00
79077;BME280;68477;42.698;23.342;2023-12-20T04:59:32;95531.78;;;-3.09;100.00
79077;BME280;68477;42.698;23.342;2023-12-20T05:01:57;95529.16;;;-2.91;100.00
79077;BME280;68477;42.698;23.342;2023-12-20T05:04:23;95530.22;;;-2.80;100.00
79077;BME280;68477;42.698;23.342;2023-12-20T05:06:49;95534.81;;;-2.55;100.00
79077;BME280;68477;42.698;23.342;2023-12-20T05:09:17;95523.03;;;-3.05;100.00
79077;BME280;68477;42.698;23.342;2023-12-20T05:11:43;95522.91;;;-2.87;100.00
79077;BME280;68477;42.698;23.342;2023-12-20T05:14:08;95519.44;;;-3.34;100.00
79077;BME280;68477;42.698;23.342;2023-12-20T05:16:33;95520.59;;;-3.24;100.00
79077;BME280;68477;42.698;23.342;2023-12-20T05:18:59;95514.72;;;-3.10;100.00
79077;BME280;68477;42.698;23.342;2023-12-20T05:21:27;95516.94;;;-3.19;100.00
79077;BME280;68477;42.698;23.342;2023-12-20T05:23:53;95507.47;;;-2.87;100.00
79077;BME280;68477;42.698;23.342;2023-12-20T05:26:18;95514.19;;;-3.32;100.00
79077;BME280;68477;42.698;23.342;2023-12-20T05:28:44;95511.72;;;-3.34;100.00
79077;BME280;68477;42.698;23.342;2023-12-20T05:31:09;95511.31;;;-3.26;100.00
79077;BME280;68477;42.698;23.342;2023-12-20T05:33:35;95503.91;;;-3.48;100.00
79077;BME280;68477;42.698;23.342;2023-12-20T05:36:00;95497.28;;;-3.20;100.00
79077;BME280;68477;42.698;23.342;2023-12-20T05:38:26;95491.59;;;-3.74;100.00
79077;BME280;68477;42.698;23.342;2023-12-20T05:40:52;95493.72;;;-3.18;100.00
79077;BME280;68477;42.698;23.342;2023-12-20T05:43:18;95494.19;;;-2.80;100.00
79077;BME280;68477;42.698;23.342;2023-12-20T05:45:45;95487.31;;;-3.11;100.00
79077;BME280;68477;42.698;23.342;2023-12-20T05:48:10;95495.47;;;-3.50;100.00
79077;BME280;68477;42.698;23.342;2023-12-20T05:50:37;95498.13;;;-3.36;100.00
79077;BME280;68477;42.698;23.342;2023-12-20T05:53:04;95500.25;;;-3.60;100.00
79077;BME280;68477;42.698;23.342;2023-12-20T05:55:30;95487.53;;;-3.63;100.00
79077;BME280;68477;42.698;23.342;2023-12-20T05:57:55;95482.34;;;-3.61;100.00
79077;BME280;68477;42.698;23.342;2023-12-20T06:00:21;95488.72;;;-3.53;100.00
79077;BME280;68477;42.698;23.342;2023-12-20T06:02:46;95480.03;;;-3.34;100.00
79077;BME280;68477;42.698;23.342;2023-12-20T06:05:12;95478.38;;;-3.51;100.00
79077;BME280;68477;42.698;23.342;2023-12-20T06:07:37;95476.91;;;-3.39;100.00
79077;BME280;68477;42.698;23.342;2023-12-20T06:10:03;95474.38;;;-3.09;100.00
79077;BME280;68477;42.698;23.342;2023-12-20T06:12:29;95478.88;;;-2.67;100.00
79077;BME280;68477;42.698;23.342;2023-12-20T06:14:57;95481.50;;;-2.99;100.00
79077;BME280;68477;42.698;23.342;2023-12-20T06:17:23;95482.59;;;-3.03;100.00
79077;BME280;68477;42.698;23.342;2023-12-20T06:19:48;95491.09;;;-3.16;100.00
79077;BME280;68477;42.698;23.342;2023-12-20T06:22:15;95485.38;;;-2.76;100.00
79077;BME280;68477;42.698;23.342;2023-12-20T06:24:40;95493.38;;;-2.80;100.00
79077;BME280;68477;42.698;23.342;2023-12-20T06:27:06;95485.41;;;-2.91;100.00
79077;BME280;68477;42.698;23.342;2023-12-20T06:29:31;95492.31;;;-2.92;100.00
79077;BME280;68477;42.698;23.342;2023-12-20T06:31:57;95484.06;;;-2.99;100.00
79077;BME280;68477;42.698;23.342;2023-12-20T06:34:22;95484.56;;;-3.08;100.00
79077;BME280;68477;42.698;23.342;2023-12-20T06:36:48;95481.03;;;-3.05;100.00
79077;BME280;68477;42.698;23.342;2023-12-20T06:39:13;95490.38;;;-2.88;100.00
79077;BME280;68477;42.698;23.342;2023-12-20T06:41:39;95479.84;;;-2.54;100.00
79077;BME280;68477;42.698;23.342;2023-12-20T06:44:05;95476.88;;;-2.92;100.00
79077;BME280;68477;42.698;23.342;2023-12-20T06:46:30;95471.59;;;-2.75;100.00
79077;BME280;68477;42.698;23.342;2023-12-20T06:48:56;95469.09;;;-2.76;100.00
79077;BME280;68477;42.698;23.342;2023-12-20T06:51:21;95466.09;;;-2.69;100.00
79077;BME280;68477;42.698;23.342;2023-12-20T06:53:51;95468.72;;;-2.54;100.00
79077;BME280;68477;42.698;23.342;2023-12-20T06:56:16;95462.72;;;-2.11;100.00
79077;BME280;68477;42.698;23.342;2023-12-20T06:58:42;95462.44;;;-2.35;100.00
79077;BME280;68477;42.698;23.342;2023-12-20T07:01:11;95463.56;;;-2.54;100.00
79077;BME280;68477;42.698;23.342;2023-12-20T07:03:38;95451.78;;;-2.58;100.00
79077;BME280;68477;42.698;23.342;2023-12-20T07:06:04;95441.31;;;-2.55;100.00
79077;BME280;68477;42.698;23.342;2023-12-20T07:08:29;95444.16;;;-2.60;100.00
79077;BME280;68477;42.698;23.342;2023-12-20T07:10:55;95457.38;;;-2.08;100.00
79077;BME280;68477;42.698;23.342;2023-12-20T07:13:20;95454.44;;;-2.16;100.00
79077;BME280;68477;42.698;23.342;2023-12-20T07:15:47;95447.00;;;-2.06;100.00
79077;BME280;68477;42.698;23.342;2023-12-20T07:18:12;95447.81;;;-2.20;100.00
79077;BME280;68477;42.698;23.342;2023-12-20T07:20:38;95447.72;;;-2.32;100.00
79077;BME280;68477;42.698;23.342;2023-12-20T07:23:04;95445.97;;;-2.32;100.00
79077;BME280;68477;42.698;23.342;2023-12-20T07:25:29;95441.00;;;-2.21;100.00
79077;BME280;68477;42.698;23.342;2023-12-20T07:27:58;95442.56;;;-2.04;100.00
79077;BME280;68477;42.698;23.342;2023-12-20T07:30:24;95437.50;;;-2.06;100.00
79077;BME280;68477;42.698;23.342;2023-12-20T07:32:49;95430.59;;;-2.05;100.00
79077;BME280;68477;42.698;23.342;2023-12-20T07:35:17;95427.28;;;-1.93;100.00
79077;BME280;68477;42.698;23.342;2023-12-20T07:37:43;95435.78;;;-1.77;100.00
79077;BME280;68477;42.698;23.342;2023-12-20T07:40:09;95431.06;;;-1.56;100.00
79077;BME280;68477;42.698;23.342;2023-12-20T07:42:35;95430.69;;;-0.96;99.87
79077;BME280;68477;42.698;23.342;2023-12-20T07:45:00;95435.47;;;-1.58;100.00
79077;BME280;68477;42.698;23.342;2023-12-20T07:47:26;95431.34;;;-1.89;100.00
79077;BME280;68477;42.698;23.342;2023-12-20T07:49:51;95430.16;;;-1.97;100.00
79077;BME280;68477;42.698;23.342;2023-12-20T07:52:18;95425.09;;;-1.99;100.00
79077;BME280;68477;42.698;23.342;2023-12-20T07:54:44;95420.50;;;-1.80;100.00
79077;BME280;68477;42.698;23.342;2023-12-20T07:57:10;95427.75;;;-1.58;100.00
79077;BME280;68477;42.698;23.342;2023-12-20T07:59:36;95420.47;;;-1.65;100.00
79077;BME280;68477;42.698;23.342;2023-12-20T08:02:02;95422.28;;;-1.12;99.92
79077;BME280;68477;42.698;23.342;2023-12-20T08:04:27;95418.94;;;-1.41;99.85
79077;BME280;68477;42.698;23.342;2023-12-20T08:06:53;95416.06;;;-1.36;100.00
79077;BME280;68477;42.698;23.342;2023-12-20T08:09:18;95422.66;;;-1.45;100.00
79077;BME280;68477;42.698;23.342;2023-12-20T08:11:48;95423.31;;;-1.56;100.00
79077;BME280;68477;42.698;23.342;2023-12-20T08:14:14;95415.53;;;-1.41;100.00
79077;BME280;68477;42.698;23.342;2023-12-20T08:16:39;95411.06;;;-1.52;100.00
79077;BME280;68477;42.698;23.342;2023-12-20T08:19:05;95404.34;;;-1.28;100.00
79077;BME280;68477;42.698;23.342;2023-12-20T08:21:30;95401.28;;;-1.47;100.00
79077;BME280;68477;42.698;23.342;2023-12-20T08:23:56;95397.44;;;-0.48;98.75
79077;BME280;68477;42.698;23.342;2023-12-20T08:26:22;95399.63;;;-0.94;99.02
79077;BME280;68477;42.698;23.342;2023-12-20T08:28:49;95403.47;;;-0.87;98.49
79077;BME280;68477;42.698;23.342;2023-12-20T08:31:18;95408.41;;;-0.44;99.99
79077;BME280;68477;42.698;23.342;2023-12-20T08:33:44;95394.63;;;-0.57;97.93
79077;BME280;68477;42.698;23.342;2023-12-20T08:36:11;95390.28;;;-0.70;98.43
79077;BME280;68477;42.698;23.342;2023-12-20T08:38:36;95390.38;;;-0.71;98.89
79077;BME280;68477;42.698;23.342;2023-12-20T08:41:02;95379.06;;;-0.18;96.87
79077;BME280;68477;42.698;23.342;2023-12-20T08:43:30;95375.94;;;-0.23;96.33
79077;BME280;68477;42.698;23.342;2023-12-20T08:45:56;95374.00;;;-0.45;97.72
79077;BME280;68477;42.698;23.342;2023-12-20T08:48:22;95364.69;;;-0.60;97.07
79077;BME280;68477;42.698;23.342;2023-12-20T08:50:47;95357.69;;;-0.45;98.69
79077;BME280;68477;42.698;23.342;2023-12-20T08:53:15;95357.53;;;-0.69;98.98
79077;BME280;68477;42.698;23.342;2023-12-20T08:55:41;95367.72;;;-0.93;100.00
79077;BME280;68477;42.698;23.342;2023-12-20T08:58:07;95367.25;;;-0.60;99.69
79077;BME280;68477;42.698;23.342;2023-12-20T09:00:34;95358.91;;;-0.51;99.89
79077;BME280;68477;42.698;23.342;2023-12-20T09:02:59;95345.38;;;-0.29;97.85
79077;BME280;68477;42.698;23.342;2023-12-20T09:05:25;95332.66;;;-0.57;98.00
79077;BME280;68477;42.698;23.342;2023-12-20T09:07:50;95330.38;;;-0.49;99.83
79077;BME280;68477;42.698;23.342;2023-12-20T09:10:16;95320.56;;;-0.32;97.65
79077;BME280;68477;42.698;23.342;2023-12-20T09:12:49;95317.91;;;-0.43;98.33
79077;BME280;68477;42.698;23.342;2023-12-20T09:15:15;95310.94;;;-0.80;100.00
79077;BME280;68477;42.698;23.342;2023-12-20T09:17:41;95304.13;;;-0.18;99.34
79077;BME280;68477;42.698;23.342;2023-12-20T09:20:07;95297.69;;;0.01;97.12
79077;BME280;68477;42.698;23.342;2023-12-20T09:22:34;95283.13;;;-0.26;98.57
79077;BME280;68477;42.698;23.342;2023-12-20T09:24:59;95289.03;;;-0.11;97.35
79077;BME280;68477;42.698;23.342;2023-12-20T09:27:25;95275.66;;;-0.05;98.37
79077;BME280;68477;42.698;23.342;2023-12-20T09:29:51;95267.72;;;-0.15;100.00
79077;BME280;68477;42.698;23.342;2023-12-20T09:32:16;95273.59;;;0.00;100.00
79077;BME280;68477;42.698;23.342;2023-12-20T09:34:42;95269.34;;;-0.14;100.00
79077;BME280;68477;42.698;23.342;2023-12-20T09:37:08;95254.19;;;-0.18;98.63
79077;BME280;68477;42.698;23.342;2023-12-20T09:39:33;95260.41;;;-0.21;100.00
79077;BME280;68477;42.698;23.342;2023-12-20T09:42:03;95255.50;;;-0.13;100.00
79077;BME280;68477;42.698;23.342;2023-12-20T09:44:30;95245.09;;;0.13;98.74
79077;BME280;68477;42.698;23.342;2023-12-20T09:46:56;95244.06;;;0.15;98.19
79077;BME280;68477;42.698;23.342;2023-12-20T09:49:22;95235.75;;;-0.14;98.53
79077;BME280;68477;42.698;23.342;2023-12-20T09:51:50;95242.56;;;0.00;98.02
79077;BME280;68477;42.698;23.342;2023-12-20T09:54:21;95235.59;;;0.13;98.74
79077;BME280;68477;42.698;23.342;2023-12-20T09:56:47;95233.25;;;-0.03;98.41
79077;BME280;68477;42.698;23.342;2023-12-20T09:59:13;95228.75;;;0.36;98.10
79077;BME280;68477;42.698;23.342;2023-12-20T10:01:43;95224.34;;;0.02;100.00
79077;BME280;68477;42.698;23.342;2023-12-20T10:04:10;95221.97;;;0.81;96.96
79077;BME280;68477;42.698;23.342;2023-12-20T10:06:42;95222.66;;;0.37;98.35
79077;BME280;68477;42.698;23.342;2023-12-20T10:09:08;95221.78;;;0.61;97.42
79077;BME280;68477;42.698;23.342;2023-12-20T10:11:39;95208.19;;;0.35;98.76
79077;BME280;68477;42.698;23.342;2023-12-20T10:14:10;95206.63;;;0.32;99.88
79077;BME280;68477;42.698;23.342;2023-12-20T10:16:36;95202.53;;;0.41;98.22
79077;BME280;68477;42.698;23.342;2023-12-20T10:19:01;95192.44;;;0.14;99.28
79077;BME280;68477;42.698;23.342;2023-12-20T10:21:27;95187.34;;;0.01;100.00
79077;BME280;68477;42.698;23.342;2023-12-20T10:23:56;95188.03;;;0.27;100.00
79077;BME280;68477;42.698;23.342;2023-12-20T10:26:25;95184.91;;;0.35;99.70
79077;BME280;68477;42.698;23.342;2023-12-20T10:28:53;95172.09;;;1.02;97.19
79077;BME280;68477;42.698;23.342;2023-12-20T10:31:34;95169.06;;;1.30;97.46
79077;BME280;68477;42.698;23.342;2023-12-20T10:34:01;95160.81;;;2.02;94.16
79077;BME280;68477;42.698;23.342;2023-12-20T10:36:32;95156.19;;;1.62;96.01
79077;BME280;68477;42.698;23.342;2023-12-20T10:38:58;95152.03;;;2.14;92.71
79077;BME280;68477;42.698;23.342;2023-12-20T10:41:29;95154.91;;;1.45;94.14
79077;BME280;68477;42.698;23.342;2023-12-20T10:44:01;95152.19;;;1.47;94.52
79077;BME280;68477;42.698;23.342;2023-12-20T10:46:30;95149.50;;;1.49;94.28
79077;BME280;68477;42.698;23.342;2023-12-20T10:48:56;95130.75;;;1.99;92.65
79077;BME280;68477;42.698;23.342;2023-12-20T10:51:23;95132.31;;;1.59;93.12
79077;BME280;68477;42.698;23.342;2023-12-20T10:53:50;95130.72;;;1.67;94.28
79077;BME280;68477;42.698;23.342;2023-12-20T10:56:19;95121.69;;;2.05;91.81
79077;BME280;68477;42.698;23.342;2023-12-20T10:58:46;95132.78;;;1.96;91.97
79077;BME280;68477;42.698;23.342;2023-12-20T11:01:14;95126.22;;;2.45;91.82
79077;BME280;68477;42.698;23.342;2023-12-20T11:03:49;95107.94;;;2.14;89.85
79077;BME280;68477;42.698;23.342;2023-12-20T11:14:17;95095.31;;;2.83;88.55
79077;BME280;68477;42.698;23.342;2023-12-20T11:16:45;95096.97;;;2.63;88.60
79077;BME280;68477;42.698;23.342;2023-12-20T11:19:11;95094.09;;;2.87;89.51
79077;BME280;68477;42.698;23.342;2023-12-20T11:21:39;95086.44;;;3.26;87.24
79077;BME280;68477;42.698;23.342;2023-12-20T11:24:05;95082.56;;;2.80;87.79
79077;BME280;68477;42.698;23.342;2023-12-20T11:26:31;95068.56;;;2.41;89.39
79077;BME280;68477;42.698;23.342;2023-12-20T11:29:29;95066.81;;;2.10;89.37
79077;BME280;68477;42.698;23.342;2023-12-20T11:31:54;95055.78;;;2.28;89.47
79077;BME280;68477;42.698;23.342;2023-12-20T11:34:20;95045.56;;;2.37;88.32
79077;BME280;68477;42.698;23.342;2023-12-20T11:36:46;95048.22;;;2.25;89.36
79077;BME280;68477;42.698;23.342;2023-12-20T11:39:11;95029.84;;;1.75;93.00
79077;BME280;68477;42.698;23.342;2023-12-20T11:41:38;95041.22;;;2.16;90.44
79077;BME280;68477;42.698;23.342;2023-12-20T11:44:04;95019.75;;;1.72;93.18
79077;BME280;68477;42.698;23.342;2023-12-20T11:46:31;95025.31;;;1.89;91.10
79077;BME280;68477;42.698;23.342;2023-12-20T11:48:56;95020.69;;;1.71;92.78
79077;BME280;68477;42.698;23.342;2023-12-20T11:51:22;95011.69;;;1.75;92.15
79077;BME280;68477;42.698;23.342;2023-12-20T11:53:51;95012.22;;;2.32;89.29
79077;BME280;68477;42.698;23.342;2023-12-20T11:56:18;95001.19;;;2.60;89.05
79077;BME280;68477;42.698;23.342;2023-12-20T11:58:44;94992.00;;;2.05;91.47
79077;BME280;68477;42.698;23.342;2023-12-20T12:01:09;94991.03;;;1.64;95.39
79077;BME280;68477;42.698;23.342;2023-12-20T12:03:35;94991.44;;;1.69;94.28
79077;BME280;68477;42.698;23.342;2023-12-20T12:06:02;94987.03;;;1.60;95.57
79077;BME280;68477;42.698;23.342;2023-12-20T12:08:29;94971.59;;;1.80;94.39
79077;BME280;68477;42.698;23.342;2023-12-20T12:10:55;94974.75;;;1.41;96.22
79077;BME280;68477;42.698;23.342;2023-12-20T12:13:20;94968.13;;;1.49;95.97
79077;BME280;68477;42.698;23.342;2023-12-20T12:15:47;94974.47;;;1.44;97.17
79077;BME280;68477;42.698;23.342;2023-12-20T12:18:16;94966.22;;;2.65;92.27
79077;BME280;68477;42.698;23.342;2023-12-20T12:20:42;94955.66;;;2.97;89.07
79077;BME280;68477;42.698;23.342;2023-12-20T12:23:07;94950.50;;;3.35;87.11
79077;BME280;68477;42.698;23.342;2023-12-20T12:25:36;94950.34;;;3.37;86.70
79077;BME280;68477;42.698;23.342;2023-12-20T12:28:03;94956.25;;;3.39;85.63
79077;BME280;68477;42.698;23.342;2023-12-20T12:30:29;94953.38;;;3.42;85.91
79077;BME280;68477;42.698;23.342;2023-12-20T12:32:56;94955.53;;;3.95;83.33
79077;BME280;68477;42.698;23.342;2023-12-20T12:35:22;94951.47;;;3.63;84.63
79077;BME280;68477;42.698;23.342;2023-12-20T12:37:47;94954.63;;;3.57;84.76
79077;BME280;68477;42.698;23.342;2023-12-20T12:40:15;94947.34;;;3.70;85.20
79077;BME280;68477;42.698;23.342;2023-12-20T12:42:41;94946.06;;;4.13;81.65
79077;BME280;68477;42.698;23.342;2023-12-20T12:45:08;94941.84;;;4.02;82.10
79077;BME280;68477;42.698;23.342;2023-12-20T12:47:34;94941.69;;;4.14;81.36